NDF6026 EDDH-LSZR
Flight info
| Callsign | NDF6026 |
|---|---|
| Flight time | 1h 3m |
| Altitude | 23000 |
| Route | IDEKO7G/33 IDEKO N850 PIROT/N0460F350 N850 XAROL DCT SWALM/N0460F340 DCT OMOGI/N0462F350 T721 SUL Z714 LEBSO N851 LOKTA T122 ARFAS T732 GARMO GARMO1H |
| Aircraft | B738/M-SDE2E3FGHIRWXY/LB1 |
Departure
| Time | 2026-05-07 09:32 |
|---|---|
| Airport | Hamburg Helmut Schmidt Airport (EDDH) |
Arrival
| Time | 2026-05-07 10:36 |
|---|---|
| Airport | Sankt Gallen Altenrhein Airport (LSZR) |
| Time | Latitude | Longitude | Altitude | Speed | Heading |
|---|---|---|---|---|---|
| 2026-05-07 08:58 | 53.63450 | 10.00316 | 62 ft | 0 kts | 86° |
| 2026-05-07 09:25 | 53.63449 | 10.00305 | 62 ft | 2 kts | 86° |
| 2026-05-07 09:25 | 53.63448 | 10.00280 | 62 ft | 2 kts | 87° |
| 2026-05-07 09:25 | 53.63448 | 10.00255 | 62 ft | 2 kts | 86° |
| 2026-05-07 09:25 | 53.63446 | 10.00232 | 62 ft | 1 kts | 104° |
| 2026-05-07 09:26 | 53.63453 | 10.00218 | 62 ft | 1 kts | 164° |
| 2026-05-07 09:26 | 53.63459 | 10.00217 | 62 ft | 0 kts | 181° |
| 2026-05-07 09:26 | 53.63463 | 10.00217 | 62 ft | 0 kts | 176° |
| 2026-05-07 09:29 | 53.63458 | 10.00218 | 62 ft | 2 kts | 175° |
| 2026-05-07 09:29 | 53.63419 | 10.00223 | 62 ft | 8 kts | 175° |
| 2026-05-07 09:29 | 53.63349 | 10.00233 | 62 ft | 10 kts | 175° |
| 2026-05-07 09:29 | 53.63284 | 10.00240 | 62 ft | 8 kts | 176° |
| 2026-05-07 09:30 | 53.63222 | 10.00247 | 62 ft | 9 kts | 176° |
| 2026-05-07 09:30 | 53.63136 | 10.00257 | 62 ft | 15 kts | 175° |
| 2026-05-07 09:30 | 53.63039 | 10.00231 | 62 ft | 13 kts | 210° |
| 2026-05-07 09:30 | 53.62953 | 10.00140 | 62 ft | 15 kts | 213° |
| 2026-05-07 09:31 | 53.62867 | 10.00039 | 62 ft | 13 kts | 233° |
| 2026-05-07 09:31 | 53.62834 | 9.99928 | 62 ft | 9 kts | 244° |
| 2026-05-07 09:31 | 53.62804 | 9.99829 | 62 ft | 8 kts | 246° |
| 2026-05-07 09:31 | 53.62855 | 9.99755 | 62 ft | 26 kts | 334° |
| 2026-05-07 09:32 | 53.63240 | 9.99423 | 62 ft | 94 kts | 332° |
| 2026-05-07 09:32 | 53.63998 | 9.98769 | 62 ft | 149 kts | 333° |
| 2026-05-07 09:32 | 53.65026 | 9.97877 | 209 ft | 177 kts | 334° |
| 2026-05-07 09:32 | 53.66047 | 9.96965 | 980 ft | 162 kts | 336° |
| 2026-05-07 09:33 | 53.67077 | 9.96069 | 1362 ft | 173 kts | 339° |
| 2026-05-07 09:33 | 53.68163 | 9.95192 | 1818 ft | 182 kts | 339° |
| 2026-05-07 09:33 | 53.69368 | 9.94187 | 2160 ft | 198 kts | 336° |
| 2026-05-07 09:33 | 53.70496 | 9.92754 | 2539 ft | 216 kts | 313° |
| 2026-05-07 09:34 | 53.71165 | 9.90347 | 2909 ft | 238 kts | 281° |
| 2026-05-07 09:34 | 53.71127 | 9.87482 | 3352 ft | 254 kts | 258° |
| 2026-05-07 09:34 | 53.70607 | 9.84555 | 3755 ft | 270 kts | 248° |
| 2026-05-07 09:34 | 53.69560 | 9.81954 | 4249 ft | 278 kts | 217° |
| 2026-05-07 09:35 | 53.67851 | 9.80466 | 4936 ft | 277 kts | 196° |
| 2026-05-07 09:35 | 53.66011 | 9.79595 | 5612 ft | 279 kts | 192° |
| 2026-05-07 09:35 | 53.64144 | 9.78781 | 6289 ft | 283 kts | 193° |
| 2026-05-07 09:35 | 53.62244 | 9.77877 | 7031 ft | 284 kts | 195° |
| 2026-05-07 09:36 | 53.60361 | 9.76911 | 7759 ft | 287 kts | 196° |
| 2026-05-07 09:36 | 53.58467 | 9.75906 | 8510 ft | 288 kts | 197° |
| 2026-05-07 09:36 | 53.56543 | 9.74878 | 9250 ft | 291 kts | 197° |
| 2026-05-07 09:36 | 53.54644 | 9.73869 | 10009 ft | 292 kts | 197° |
| 2026-05-07 09:37 | 53.52677 | 9.72827 | 10586 ft | 302 kts | 198° |
| 2026-05-07 09:37 | 53.50633 | 9.71748 | 10992 ft | 317 kts | 198° |
| 2026-05-07 09:37 | 53.48490 | 9.70616 | 11384 ft | 332 kts | 198° |
| 2026-05-07 09:37 | 53.46215 | 9.69413 | 11764 ft | 348 kts | 198° |
| 2026-05-07 09:38 | 53.43867 | 9.68179 | 12125 ft | 364 kts | 198° |
| 2026-05-07 09:38 | 53.41415 | 9.66892 | 12531 ft | 378 kts | 198° |
| 2026-05-07 09:38 | 53.38911 | 9.65576 | 13276 ft | 381 kts | 198° |
| 2026-05-07 09:38 | 53.36388 | 9.64254 | 14019 ft | 385 kts | 198° |
| 2026-05-07 09:39 | 53.33841 | 9.62922 | 14785 ft | 388 kts | 198° |
| 2026-05-07 09:39 | 53.31252 | 9.61572 | 15541 ft | 391 kts | 198° |
| 2026-05-07 09:39 | 53.28659 | 9.60221 | 16283 ft | 395 kts | 198° |
| 2026-05-07 09:39 | 53.26033 | 9.58853 | 17004 ft | 399 kts | 198° |
| 2026-05-07 09:40 | 53.23380 | 9.57471 | 17709 ft | 402 kts | 198° |
| 2026-05-07 09:40 | 53.20781 | 9.56118 | 18366 ft | 406 kts | 198° |
| 2026-05-07 09:40 | 53.18062 | 9.54706 | 19063 ft | 409 kts | 198° |
| 2026-05-07 09:40 | 53.15335 | 9.53291 | 19718 ft | 413 kts | 198° |
| 2026-05-07 09:41 | 53.12597 | 9.51872 | 20371 ft | 416 kts | 198° |
| 2026-05-07 09:41 | 53.09836 | 9.50444 | 20995 ft | 419 kts | 198° |
| 2026-05-07 09:41 | 53.07034 | 9.48995 | 21589 ft | 423 kts | 198° |
| 2026-05-07 09:41 | 53.04244 | 9.47555 | 22189 ft | 426 kts | 198° |
| 2026-05-07 09:42 | 53.01411 | 9.46127 | 22763 ft | 429 kts | 197° |
| 2026-05-07 09:42 | 52.98484 | 9.44937 | 23335 ft | 433 kts | 193° |
| 2026-05-07 09:42 | 52.95526 | 9.44063 | 23878 ft | 436 kts | 190° |
| 2026-05-07 09:42 | 52.92502 | 9.43349 | 24413 ft | 440 kts | 188° |
| 2026-05-07 09:43 | 52.89473 | 9.42716 | 24927 ft | 444 kts | 188° |
| 2026-05-07 09:43 | 52.86404 | 9.42106 | 25446 ft | 447 kts | 188° |
| 2026-05-07 09:43 | 52.83300 | 9.41493 | 26003 ft | 449 kts | 188° |
| 2026-05-07 09:43 | 52.80195 | 9.40870 | 26479 ft | 453 kts | 188° |
| 2026-05-07 09:44 | 52.77064 | 9.40232 | 26949 ft | 457 kts | 188° |
| 2026-05-07 09:44 | 52.73896 | 9.39578 | 27405 ft | 460 kts | 188° |
| 2026-05-07 09:44 | 52.70727 | 9.38919 | 27872 ft | 463 kts | 188° |
| 2026-05-07 09:44 | 52.67532 | 9.38251 | 28331 ft | 466 kts | 188° |
| 2026-05-07 09:45 | 52.64335 | 9.37580 | 29021 ft | 463 kts | 188° |
| 2026-05-07 09:45 | 52.61155 | 9.36901 | 29747 ft | 459 kts | 188° |
| 2026-05-07 09:45 | 52.58002 | 9.36147 | 30337 ft | 458 kts | 189° |
| 2026-05-07 09:45 | 52.54868 | 9.35332 | 30965 ft | 455 kts | 190° |
| 2026-05-07 09:46 | 52.51774 | 9.34501 | 31529 ft | 453 kts | 189° |
| 2026-05-07 09:46 | 52.48656 | 9.33657 | 31921 ft | 453 kts | 189° |
| 2026-05-07 09:46 | 52.45538 | 9.32817 | 32387 ft | 452 kts | 189° |
| 2026-05-07 09:46 | 52.42433 | 9.31987 | 32754 ft | 453 kts | 189° |
| 2026-05-07 09:47 | 52.39315 | 9.31160 | 33155 ft | 452 kts | 189° |
| 2026-05-07 09:47 | 52.36235 | 9.30347 | 33476 ft | 452 kts | 189° |
| 2026-05-07 09:47 | 52.33122 | 9.29531 | 33791 ft | 452 kts | 189° |
| 2026-05-07 09:47 | 52.30008 | 9.28714 | 34037 ft | 453 kts | 189° |
| 2026-05-07 09:48 | 52.26913 | 9.27904 | 34290 ft | 454 kts | 189° |
| 2026-05-07 09:48 | 52.23791 | 9.27087 | 34537 ft | 454 kts | 189° |
| 2026-05-07 09:48 | 52.20643 | 9.26328 | 34808 ft | 454 kts | 188° |
| 2026-05-07 09:48 | 52.17510 | 9.25700 | 35096 ft | 452 kts | 187° |
| 2026-05-07 09:49 | 52.14396 | 9.25146 | 35366 ft | 452 kts | 186° |
| 2026-05-07 09:49 | 52.11288 | 9.24620 | 35636 ft | 450 kts | 186° |
| 2026-05-07 09:49 | 52.08173 | 9.24095 | 35846 ft | 450 kts | 186° |
| 2026-05-07 09:49 | 52.05071 | 9.23566 | 35973 ft | 452 kts | 187° |
| 2026-05-07 09:50 | 52.01955 | 9.22936 | 35981 ft | 453 kts | 188° |
| 2026-05-07 09:50 | 51.95736 | 9.21361 | 35998 ft | 450 kts | 189° |
| 2026-05-07 09:51 | 51.89598 | 9.19691 | 35988 ft | 449 kts | 190° |
| 2026-05-07 09:51 | 51.83433 | 9.18139 | 35981 ft | 450 kts | 188° |
| 2026-05-07 09:52 | 51.77256 | 9.16785 | 35978 ft | 450 kts | 188° |
| 2026-05-07 09:52 | 51.71035 | 9.15465 | 35981 ft | 450 kts | 188° |
| 2026-05-07 09:53 | 51.64862 | 9.14153 | 35985 ft | 449 kts | 188° |
| 2026-05-07 09:53 | 51.58657 | 9.12826 | 35983 ft | 449 kts | 188° |
| 2026-05-07 09:54 | 51.52465 | 9.11500 | 35994 ft | 450 kts | 188° |
| 2026-05-07 09:54 | 51.46302 | 9.09948 | 35994 ft | 449 kts | 192° |
| 2026-05-07 09:55 | 51.40168 | 9.07839 | 35989 ft | 449 kts | 193° |
| 2026-05-07 09:55 | 51.34110 | 9.05666 | 35992 ft | 449 kts | 191° |
| 2026-05-07 09:56 | 51.27861 | 9.05284 | 35981 ft | 451 kts | 175° |
| 2026-05-07 09:56 | 51.21659 | 9.06755 | 35982 ft | 452 kts | 170° |
| 2026-05-07 09:57 | 51.15498 | 9.08598 | 35985 ft | 450 kts | 170° |
| 2026-05-07 09:57 | 51.09364 | 9.10407 | 35976 ft | 450 kts | 170° |
| 2026-05-07 09:58 | 51.03178 | 9.12145 | 35989 ft | 450 kts | 171° |
| 2026-05-07 09:58 | 50.97035 | 9.13814 | 35979 ft | 450 kts | 171° |
| 2026-05-07 09:59 | 50.90828 | 9.15478 | 35987 ft | 451 kts | 171° |
| 2026-05-07 09:59 | 50.84681 | 9.17114 | 35972 ft | 451 kts | 171° |
| 2026-05-07 10:00 | 50.78499 | 9.18753 | 35982 ft | 450 kts | 171° |
| 2026-05-07 10:00 | 50.72311 | 9.20026 | 35988 ft | 450 kts | 178° |
| 2026-05-07 10:01 | 50.66045 | 9.19647 | 35976 ft | 449 kts | 186° |
| 2026-05-07 10:01 | 50.59846 | 9.18390 | 35977 ft | 449 kts | 188° |
| 2026-05-07 10:02 | 50.53682 | 9.16987 | 35967 ft | 449 kts | 189° |
| 2026-05-07 10:02 | 50.47489 | 9.15611 | 35976 ft | 450 kts | 188° |
| 2026-05-07 10:03 | 50.41277 | 9.14284 | 35978 ft | 450 kts | 188° |
| 2026-05-07 10:03 | 50.35095 | 9.12995 | 35980 ft | 450 kts | 188° |
| 2026-05-07 10:04 | 50.28928 | 9.11723 | 35993 ft | 449 kts | 188° |
| 2026-05-07 10:04 | 50.22753 | 9.10457 | 35985 ft | 448 kts | 188° |
| 2026-05-07 10:05 | 50.16558 | 9.09192 | 35994 ft | 450 kts | 188° |
| 2026-05-07 10:05 | 50.10355 | 9.07930 | 35999 ft | 450 kts | 188° |
| 2026-05-07 10:06 | 50.04138 | 9.06670 | 36000 ft | 450 kts | 188° |
| 2026-05-07 10:06 | 49.97931 | 9.05415 | 36002 ft | 450 kts | 188° |
| 2026-05-07 10:07 | 49.91724 | 9.04162 | 35998 ft | 450 kts | 188° |
| 2026-05-07 10:07 | 49.85556 | 9.02921 | 36001 ft | 450 kts | 188° |
| 2026-05-07 10:08 | 49.79355 | 9.01676 | 36004 ft | 448 kts | 188° |
| 2026-05-07 10:08 | 49.73186 | 9.00441 | 36001 ft | 447 kts | 188° |
| 2026-05-07 10:09 | 49.67058 | 8.99218 | 36007 ft | 449 kts | 189° |
| 2026-05-07 10:09 | 49.60939 | 8.97835 | 36004 ft | 450 kts | 191° |
| 2026-05-07 10:10 | 49.54805 | 8.96120 | 36005 ft | 449 kts | 192° |
| 2026-05-07 10:10 | 49.48655 | 8.94357 | 36003 ft | 449 kts | 192° |
| 2026-05-07 10:11 | 49.42542 | 8.92633 | 35999 ft | 448 kts | 191° |
| 2026-05-07 10:11 | 49.36382 | 8.90928 | 36000 ft | 448 kts | 191° |
| 2026-05-07 10:12 | 49.30266 | 8.89253 | 36000 ft | 448 kts | 191° |
| 2026-05-07 10:12 | 49.24137 | 8.87584 | 36005 ft | 448 kts | 191° |
| 2026-05-07 10:13 | 49.17979 | 8.85913 | 36006 ft | 448 kts | 192° |
| 2026-05-07 10:13 | 49.11841 | 8.84239 | 36004 ft | 448 kts | 192° |
| 2026-05-07 10:14 | 49.05696 | 8.82565 | 36008 ft | 449 kts | 192° |
| 2026-05-07 10:14 | 48.99576 | 8.80902 | 36000 ft | 449 kts | 192° |
| 2026-05-07 10:15 | 48.93447 | 8.79241 | 36002 ft | 448 kts | 192° |
| 2026-05-07 10:15 | 48.87318 | 8.77582 | 35998 ft | 448 kts | 192° |
| 2026-05-07 10:16 | 48.81187 | 8.75934 | 36003 ft | 448 kts | 192° |
| 2026-05-07 10:16 | 48.75066 | 8.74295 | 36000 ft | 448 kts | 192° |
| 2026-05-07 10:17 | 48.68924 | 8.72656 | 35994 ft | 448 kts | 192° |
| 2026-05-07 10:17 | 48.62786 | 8.71021 | 35999 ft | 448 kts | 192° |
| 2026-05-07 10:18 | 48.56652 | 8.69389 | 35821 ft | 450 kts | 192° |
| 2026-05-07 10:18 | 48.53564 | 8.68664 | 35366 ft | 451 kts | 188° |
| 2026-05-07 10:18 | 48.50433 | 8.68391 | 34749 ft | 454 kts | 180° |
| 2026-05-07 10:18 | 48.47284 | 8.68996 | 34048 ft | 460 kts | 168° |
| 2026-05-07 10:19 | 48.44257 | 8.70476 | 33466 ft | 463 kts | 158° |
| 2026-05-07 10:19 | 48.41376 | 8.72614 | 32891 ft | 465 kts | 151° |
| 2026-05-07 10:19 | 48.38634 | 8.75244 | 32301 ft | 466 kts | 143° |
| 2026-05-07 10:19 | 48.36268 | 8.78500 | 31714 ft | 465 kts | 130° |
| 2026-05-07 10:20 | 48.34341 | 8.82373 | 31041 ft | 463 kts | 120° |
| 2026-05-07 10:20 | 48.32812 | 8.86618 | 30094 ft | 464 kts | 114° |
| 2026-05-07 10:20 | 48.31519 | 8.91006 | 28987 ft | 468 kts | 111° |
| 2026-05-07 10:20 | 48.30318 | 8.95591 | 27956 ft | 470 kts | 109° |
| 2026-05-07 10:21 | 48.29123 | 9.00083 | 27155 ft | 468 kts | 112° |
| 2026-05-07 10:21 | 48.27613 | 9.04411 | 26479 ft | 464 kts | 122° |
| 2026-05-07 10:21 | 48.25634 | 9.08199 | 25678 ft | 463 kts | 132° |
| 2026-05-07 10:21 | 48.23298 | 9.11461 | 24923 ft | 459 kts | 140° |
| 2026-05-07 10:22 | 48.20759 | 9.14304 | 24227 ft | 454 kts | 145° |
| 2026-05-07 10:22 | 48.18176 | 9.16943 | 23270 ft | 448 kts | 147° |
| 2026-05-07 10:22 | 48.15477 | 9.19201 | 22291 ft | 440 kts | 156° |
| 2026-05-07 10:22 | 48.12659 | 9.20777 | 21305 ft | 433 kts | 165° |
| 2026-05-07 10:23 | 48.09779 | 9.21766 | 20335 ft | 426 kts | 169° |
| 2026-05-07 10:23 | 48.06906 | 9.22610 | 19356 ft | 420 kts | 169° |
| 2026-05-07 10:23 | 48.04022 | 9.23354 | 18391 ft | 413 kts | 175° |
| 2026-05-07 10:23 | 48.01220 | 9.23457 | 17469 ft | 405 kts | 186° |
| 2026-05-07 10:24 | 47.98441 | 9.22929 | 16518 ft | 398 kts | 190° |
| 2026-05-07 10:24 | 47.95747 | 9.22514 | 15627 ft | 392 kts | 185° |
| 2026-05-07 10:24 | 47.93016 | 9.22480 | 14896 ft | 391 kts | 180° |
| 2026-05-07 10:24 | 47.90299 | 9.22717 | 14162 ft | 390 kts | 177° |
| 2026-05-07 10:25 | 47.87650 | 9.23200 | 13486 ft | 389 kts | 171° |
| 2026-05-07 10:25 | 47.85073 | 9.24358 | 12792 ft | 389 kts | 159° |
| 2026-05-07 10:25 | 47.82684 | 9.26248 | 12106 ft | 388 kts | 149° |
| 2026-05-07 10:25 | 47.80465 | 9.28513 | 11420 ft | 386 kts | 144° |
| 2026-05-07 10:26 | 47.78614 | 9.31272 | 11012 ft | 378 kts | 128° |
| 2026-05-07 10:26 | 47.77110 | 9.34380 | 10830 ft | 363 kts | 125° |
| 2026-05-07 10:26 | 47.75719 | 9.37432 | 10669 ft | 348 kts | 124° |
| 2026-05-07 10:26 | 47.74364 | 9.40315 | 10529 ft | 334 kts | 131° |
| 2026-05-07 10:27 | 47.72628 | 9.42483 | 10414 ft | 315 kts | 154° |
| 2026-05-07 10:27 | 47.70593 | 9.43268 | 10335 ft | 293 kts | 184° |
| 2026-05-07 10:27 | 47.68706 | 9.42477 | 10075 ft | 280 kts | 214° |
| 2026-05-07 10:27 | 47.67432 | 9.40371 | 9621 ft | 276 kts | 248° |
| 2026-05-07 10:28 | 47.67135 | 9.37594 | 9152 ft | 275 kts | 275° |
| 2026-05-07 10:28 | 47.67456 | 9.34825 | 8779 ft | 273 kts | 282° |
| 2026-05-07 10:28 | 47.67881 | 9.32112 | 8316 ft | 272 kts | 283° |
| 2026-05-07 10:28 | 47.68377 | 9.29421 | 7764 ft | 270 kts | 292° |
| 2026-05-07 10:29 | 47.69230 | 9.26995 | 7250 ft | 266 kts | 301° |
| 2026-05-07 10:29 | 47.70226 | 9.24725 | 7009 ft | 252 kts | 303° |
| 2026-05-07 10:29 | 47.71040 | 9.22537 | 6822 ft | 238 kts | 285° |
| 2026-05-07 10:30 | 47.70131 | 9.18144 | 5928 ft | 241 kts | 220° |
| 2026-05-07 10:30 | 47.68611 | 9.17116 | 5546 ft | 243 kts | 188° |
| 2026-05-07 10:30 | 47.66950 | 9.17399 | 5192 ft | 243 kts | 157° |
| 2026-05-07 10:30 | 47.65519 | 9.18671 | 4980 ft | 238 kts | 144° |
| 2026-05-07 10:31 | 47.64188 | 9.20115 | 4972 ft | 240 kts | 143° |
| 2026-05-07 10:31 | 47.62826 | 9.21600 | 4971 ft | 243 kts | 143° |
| 2026-05-07 10:31 | 47.61460 | 9.23091 | 4968 ft | 243 kts | 143° |
| 2026-05-07 10:31 | 47.60104 | 9.24570 | 4967 ft | 243 kts | 143° |
| 2026-05-07 10:32 | 47.58746 | 9.26050 | 4966 ft | 242 kts | 143° |
| 2026-05-07 10:32 | 47.57371 | 9.27536 | 4966 ft | 242 kts | 143° |
| 2026-05-07 10:32 | 47.56018 | 9.28996 | 4967 ft | 243 kts | 143° |
| 2026-05-07 10:32 | 47.54642 | 9.30477 | 4967 ft | 242 kts | 143° |
| 2026-05-07 10:33 | 47.53278 | 9.31939 | 4967 ft | 242 kts | 143° |
| 2026-05-07 10:33 | 47.51917 | 9.33390 | 4967 ft | 242 kts | 143° |
| 2026-05-07 10:33 | 47.50581 | 9.34872 | 4953 ft | 242 kts | 136° |
| 2026-05-07 10:33 | 47.49636 | 9.36893 | 4609 ft | 232 kts | 107° |
| 2026-05-07 10:34 | 47.49515 | 9.39182 | 4170 ft | 219 kts | 81° |
| 2026-05-07 10:34 | 47.49691 | 9.41349 | 3792 ft | 209 kts | 87° |
| 2026-05-07 10:34 | 47.49591 | 9.43440 | 3429 ft | 199 kts | 94° |
| 2026-05-07 10:34 | 47.49445 | 9.45433 | 3064 ft | 189 kts | 95° |
| 2026-05-07 10:35 | 47.49287 | 9.47296 | 2728 ft | 180 kts | 96° |
| 2026-05-07 10:35 | 47.49147 | 9.49131 | 2279 ft | 180 kts | 91° |
| 2026-05-07 10:35 | 47.49081 | 9.50923 | 2003 ft | 168 kts | 98° |
| 2026-05-07 10:35 | 47.48875 | 9.52518 | 1838 ft | 148 kts | 98° |
| 2026-05-07 10:36 | 47.48720 | 9.54003 | 1551 ft | 144 kts | 96° |
| 2026-05-07 10:36 | 47.48574 | 9.55410 | 1318 ft | 130 kts | 98° |
| 2026-05-07 10:36 | 47.48484 | 9.56287 | 1318 ft | 38 kts | 98° |
| 2026-05-07 10:36 | 47.48452 | 9.56586 | 1316 ft | 27 kts | 98° |
| 2026-05-07 10:37 | 47.48426 | 9.56861 | 1316 ft | 26 kts | 97° |
| 2026-05-07 10:37 | 47.48416 | 9.57047 | 1315 ft | 0 kts | 66° |
| 2026-05-07 10:37 | 47.48418 | 9.57051 | 1315 ft | 2 kts | 50° |
| 2026-05-07 10:37 | 47.48456 | 9.57074 | 1315 ft | 8 kts | 8° |
| 2026-05-07 10:38 | 47.48510 | 9.57082 | 1315 ft | 4 kts | 6° |
| 2026-05-07 10:38 | 47.48540 | 9.57086 | 1315 ft | 4 kts | 346° |
| 2026-05-07 10:38 | 47.48557 | 9.57046 | 1315 ft | 5 kts | 280° |
| 2026-05-07 10:38 | 47.48562 | 9.57003 | 1315 ft | 3 kts | 279° |
| 2026-05-07 10:39 | 47.48568 | 9.56947 | 1315 ft | 7 kts | 278° |
| 2026-05-07 10:39 | 47.48580 | 9.56838 | 1315 ft | 13 kts | 278° |
| 2026-05-07 10:39 | 47.48593 | 9.56705 | 1315 ft | 12 kts | 276° |
| 2026-05-07 10:39 | 47.48605 | 9.56579 | 1315 ft | 12 kts | 278° |
| 2026-05-07 10:40 | 47.48617 | 9.56465 | 1316 ft | 11 kts | 278° |
| 2026-05-07 10:40 | 47.48632 | 9.56318 | 1316 ft | 15 kts | 278° |
| 2026-05-07 10:40 | 47.48645 | 9.56197 | 1318 ft | 6 kts | 278° |
| 2026-05-07 10:40 | 47.48656 | 9.56158 | 1318 ft | 3 kts | 332° |
| 2026-05-07 10:41 | 47.48683 | 9.56154 | 1318 ft | 4 kts | 8° |
| 2026-05-07 10:41 | 47.48698 | 9.56160 | 1317 ft | 0 kts | 14° |